createdAt,value
2019-05-19T00:01:30.917Z,4.67
2019-05-19T00:03:57.753Z,5.30
2019-05-19T00:06:24.585Z,4.80
2019-05-19T00:08:51.441Z,4.50
2019-05-19T00:11:18.281Z,5.05
2019-05-19T00:13:45.266Z,5.15
2019-05-19T00:16:12.108Z,4.40
2019-05-19T00:18:38.927Z,3.95
2019-05-19T00:21:05.733Z,3.90
2019-05-19T00:23:32.975Z,4.40
2019-05-19T00:25:59.793Z,3.98
2019-05-19T00:28:26.581Z,4.62
2019-05-19T00:30:53.417Z,4.60
2019-05-19T00:33:20.270Z,4.30
2019-05-19T00:35:47.119Z,3.90
2019-05-19T00:38:13.891Z,4.25
2019-05-19T00:40:40.725Z,4.22
2019-05-19T00:43:07.508Z,3.60
2019-05-19T00:45:34.445Z,4.33
2019-05-19T00:48:01.576Z,4.62
2019-05-19T00:50:28.422Z,3.85
2019-05-19T00:52:55.505Z,3.70
2019-05-19T00:55:22.342Z,4.60
2019-05-19T00:57:49.929Z,3.70
2019-05-19T01:00:17.508Z,4.40
2019-05-19T01:02:44.273Z,4.30
2019-05-19T01:05:11.214Z,5.20
2019-05-19T01:07:38.053Z,4.67
2019-05-19T01:10:09.028Z,4.37
2019-05-19T01:12:35.845Z,4.10
2019-05-19T01:15:04.539Z,5.00
2019-05-19T01:17:31.375Z,4.85
2019-05-19T01:19:58.363Z,5.10
2019-05-19T01:22:25.513Z,5.00
2019-05-19T01:24:52.341Z,5.40
2019-05-19T01:27:19.187Z,4.80
2019-05-19T01:29:45.977Z,4.30
2019-05-19T01:32:12.906Z,4.45
2019-05-19T01:34:39.698Z,3.67
2019-05-19T01:37:06.536Z,3.40
2019-05-19T01:39:33.378Z,3.90
2019-05-19T01:42:00.173Z,3.77
2019-05-19T01:44:26.956Z,4.15
2019-05-19T01:46:53.741Z,3.72
2019-05-19T01:49:20.580Z,3.80
2019-05-19T01:51:47.415Z,3.80
2019-05-19T01:54:16.743Z,3.30
2019-05-19T01:56:42.875Z,3.45
2019-05-19T01:59:09.649Z,3.87
2019-05-19T02:01:36.439Z,3.30
2019-05-19T02:04:03.298Z,3.30
2019-05-19T02:06:30.123Z,3.58
2019-05-19T02:08:56.952Z,3.27
2019-05-19T02:11:23.944Z,3.30
2019-05-19T02:13:50.797Z,3.10
2019-05-19T02:16:17.589Z,2.80
2019-05-19T02:18:44.432Z,2.77
2019-05-19T02:21:11.240Z,2.80
2019-05-19T02:23:38.050Z,2.40
2019-05-19T02:26:04.876Z,2.33
2019-05-19T02:28:31.665Z,2.25
2019-05-19T02:30:58.461Z,2.30
2019-05-19T02:33:26.399Z,1.80
2019-05-19T02:35:53.222Z,2.00
2019-05-19T02:38:20.006Z,2.20
2019-05-19T02:40:53.457Z,1.92
2019-05-19T02:43:22.229Z,1.87
2019-05-19T02:45:53.253Z,1.92
2019-05-19T02:48:22.141Z,2.50
2019-05-19T02:50:52.695Z,2.55
2019-05-19T02:53:19.342Z,2.00
2019-05-19T02:55:46.870Z,2.10
2019-05-19T02:58:14.258Z,2.30
2019-05-19T03:00:42.490Z,2.20
2019-05-19T03:03:09.392Z,2.05
2019-05-19T03:05:37.084Z,2.20
2019-05-19T03:08:04.208Z,2.67
2019-05-19T03:10:30.986Z,2.30
2019-05-19T03:12:57.831Z,2.10
2019-05-19T03:15:24.684Z,2.20
2019-05-19T03:17:51.516Z,2.43
2019-05-19T03:20:18.300Z,2.33
2019-05-19T03:22:45.133Z,2.62
2019-05-19T03:25:12.021Z,2.20
2019-05-19T03:27:38.853Z,2.40
2019-05-19T03:30:27.249Z,2.40
2019-05-19T03:33:02.117Z,2.50
2019-05-19T03:35:29.017Z,2.50
2019-05-19T03:37:55.797Z,2.37
2019-05-19T03:40:22.630Z,2.50
2019-05-19T03:42:49.927Z,2.92
2019-05-19T03:45:16.746Z,2.83
2019-05-19T03:47:43.526Z,3.10
2019-05-19T03:50:10.361Z,2.72
2019-05-19T03:52:37.142Z,3.10
2019-05-19T03:55:05.197Z,3.10
2019-05-19T03:57:31.969Z,3.55
2019-05-19T03:59:58.817Z,3.92
2019-05-19T04:02:25.600Z,3.90
2019-05-19T04:07:11.268Z,3.92
2019-05-19T04:09:38.061Z,4.05
2019-05-19T04:12:04.838Z,4.50
2019-05-19T04:14:31.696Z,4.40
2019-05-19T04:16:59.628Z,4.30
2019-05-19T04:19:26.411Z,4.20
2019-05-19T04:21:53.249Z,3.80
2019-05-19T04:24:20.086Z,5.13
2019-05-19T04:26:46.880Z,4.40
2019-05-19T04:29:13.829Z,4.78
2019-05-19T04:31:40.600Z,4.58
2019-05-19T04:34:07.442Z,4.58
2019-05-19T04:36:34.284Z,4.95
2019-05-19T04:39:01.065Z,4.30
2019-05-19T04:41:27.853Z,5.10
2019-05-19T04:43:54.759Z,4.95
2019-05-19T04:46:21.574Z,5.00
2019-05-19T04:48:48.387Z,5.08
2019-05-19T04:51:15.174Z,5.12
2019-05-19T04:53:42.017Z,5.10
2019-05-19T04:56:08.822Z,5.37
2019-05-19T04:58:35.658Z,5.00
2019-05-19T05:01:02.496Z,5.00
2019-05-19T05:03:29.326Z,5.47
2019-05-19T05:05:56.169Z,5.33
2019-05-19T05:08:30.004Z,5.12
2019-05-19T05:10:51.618Z,5.33
2019-05-19T05:13:18.448Z,5.10
2019-05-19T05:15:45.233Z,4.90
2019-05-19T05:18:12.074Z,5.03
2019-05-19T05:20:38.859Z,5.17
2019-05-19T05:23:05.701Z,5.28
2019-05-19T05:25:32.488Z,4.83
2019-05-19T05:27:59.333Z,4.90
2019-05-19T05:30:26.186Z,4.85
2019-05-19T05:32:53.428Z,4.90
2019-05-19T05:35:20.209Z,5.15
2019-05-19T05:37:47.049Z,5.33
2019-05-19T05:40:13.954Z,5.30
2019-05-19T05:42:40.780Z,5.60
2019-05-19T05:45:07.764Z,5.80
2019-05-19T05:47:34.601Z,6.10
2019-05-19T05:50:01.438Z,5.75
2019-05-19T05:52:38.195Z,6.50
2019-05-19T05:54:56.853Z,6.08
2019-05-19T05:57:23.693Z,6.55
2019-05-19T05:59:50.628Z,6.20
2019-05-19T06:02:17.408Z,6.20
2019-05-19T06:04:44.250Z,5.87
2019-05-19T06:07:11.089Z,5.70
2019-05-19T06:09:37.921Z,5.90
2019-05-19T06:12:04.713Z,5.95
2019-05-19T06:14:31.544Z,5.80
2019-05-19T06:16:58.337Z,6.50
2019-05-19T06:19:25.180Z,6.15
2019-05-19T06:21:51.956Z,6.20
2019-05-19T06:24:18.800Z,5.92
2019-05-19T06:26:45.988Z,6.20
2019-05-19T06:29:12.833Z,6.10
2019-05-19T06:31:39.614Z,6.60
2019-05-19T06:34:06.454Z,6.10
2019-05-19T06:36:33.814Z,6.70
2019-05-19T06:39:00.583Z,6.60
2019-05-19T06:41:27.370Z,6.50
2019-05-19T06:43:54.221Z,6.70
2019-05-19T06:46:21.013Z,6.45
2019-05-19T06:48:47.868Z,6.30
2019-05-19T06:51:14.653Z,6.40
2019-05-19T06:53:41.489Z,6.40
2019-05-19T06:56:08.266Z,6.43
2019-05-19T06:58:35.093Z,6.72
2019-05-19T07:01:01.881Z,6.37
2019-05-19T07:03:28.745Z,6.78
2019-05-19T07:05:55.623Z,6.28
2019-05-19T07:08:22.411Z,6.42
2019-05-19T07:10:49.241Z,6.72
2019-05-19T07:13:16.073Z,6.90
2019-05-19T07:15:42.857Z,6.87
2019-05-19T07:18:09.746Z,6.53
2019-05-19T07:20:36.573Z,7.05
2019-05-19T07:23:03.676Z,6.83
2019-05-19T07:25:30.481Z,7.53
2019-05-19T07:27:57.312Z,7.37
2019-05-19T07:30:24.169Z,7.80
2019-05-19T07:32:50.998Z,7.05
2019-05-19T07:35:17.786Z,7.17
2019-05-19T07:37:44.921Z,7.10
2019-05-19T07:40:11.814Z,6.70
2019-05-19T07:42:39.363Z,7.45
2019-05-19T07:45:07.861Z,8.10
2019-05-19T07:47:34.792Z,7.58
2019-05-19T07:50:01.746Z,7.50
2019-05-19T07:52:28.634Z,7.70
2019-05-19T07:54:55.495Z,7.75
2019-05-19T07:57:22.268Z,8.35
2019-05-19T07:59:50.409Z,7.57
2019-05-19T08:02:17.225Z,8.00
2019-05-19T08:04:44.058Z,7.70
2019-05-19T08:07:10.954Z,6.80
2019-05-19T08:09:37.777Z,8.25
2019-05-19T08:12:04.604Z,9.25
2019-05-19T08:14:31.447Z,7.60
2019-05-19T08:16:58.234Z,7.78
2019-05-19T08:19:25.176Z,7.40
2019-05-19T08:21:51.958Z,7.28
2019-05-19T08:24:18.797Z,8.60
2019-05-19T08:26:45.632Z,7.40
2019-05-19T08:29:12.413Z,8.58
2019-05-19T08:31:39.267Z,8.90
2019-05-19T08:34:06.736Z,8.30
2019-05-19T08:36:34.136Z,8.48
2019-05-19T08:39:01.398Z,8.30
2019-05-19T08:41:28.188Z,9.07
2019-05-19T08:43:54.973Z,8.20
2019-05-19T08:46:21.834Z,8.60
2019-05-19T08:48:48.664Z,8.70
2019-05-19T08:51:15.500Z,8.90
2019-05-19T08:53:42.334Z,9.00
2019-05-19T08:56:09.120Z,8.00
2019-05-19T08:58:36.236Z,8.43
2019-05-19T09:01:03.128Z,7.17
2019-05-19T09:03:29.953Z,7.60
2019-05-19T09:05:56.801Z,8.25
2019-05-19T09:08:23.707Z,9.13
2019-05-19T09:10:50.580Z,10.20
2019-05-19T09:13:17.357Z,7.80
2019-05-19T09:15:44.193Z,8.05
2019-05-19T09:18:10.989Z,7.55
2019-05-19T09:20:37.872Z,8.10
2019-05-19T09:23:04.712Z,8.40
2019-05-19T09:25:31.493Z,9.33
2019-05-19T09:27:58.369Z,9.40
2019-05-19T09:30:25.281Z,9.08
2019-05-19T09:32:52.285Z,7.42
2019-05-19T09:35:19.109Z,9.30
2019-05-19T09:37:45.897Z,9.00
2019-05-19T09:40:13.148Z,9.95
2019-05-19T09:42:39.985Z,9.77
2019-05-19T09:45:07.153Z,9.70
2019-05-19T09:47:34.044Z,8.70
2019-05-19T09:50:00.877Z,7.97
2019-05-19T09:52:27.716Z,6.90
2019-05-19T09:54:54.497Z,7.50
2019-05-19T09:57:21.333Z,7.33
2019-05-19T09:59:48.120Z,8.08
2019-05-19T10:02:15.006Z,8.50
2019-05-19T10:04:41.793Z,6.70
2019-05-19T10:07:09.042Z,7.30
2019-05-19T10:10:03.978Z,6.60
2019-05-19T10:12:30.824Z,6.40
2019-05-19T10:14:57.716Z,8.28
2019-05-19T10:17:24.550Z,7.35
2019-05-19T10:19:51.429Z,8.10
2019-05-19T10:22:18.388Z,7.62
2019-05-19T10:24:59.330Z,6.42
2019-05-19T10:27:13.837Z,7.60
2019-05-19T10:29:40.677Z,7.40
2019-05-19T10:32:07.509Z,9.40
2019-05-19T10:34:35.511Z,8.93
2019-05-19T10:37:02.345Z,8.93
2019-05-19T10:39:29.120Z,9.53
2019-05-19T10:41:55.956Z,9.00
2019-05-19T10:44:22.749Z,11.10
2019-05-19T10:46:49.680Z,9.98
2019-05-19T10:49:16.464Z,9.20
2019-05-19T10:51:43.316Z,9.25
2019-05-19T10:54:10.096Z,10.60
2019-05-19T10:56:36.928Z,9.07
2019-05-19T10:59:03.761Z,9.80
2019-05-19T11:01:30.646Z,10.50
2019-05-19T11:03:57.511Z,9.00
2019-05-19T11:06:24.301Z,9.70
2019-05-19T11:08:51.089Z,8.60
2019-05-19T11:11:17.920Z,9.25
2019-05-19T11:13:44.796Z,7.50
2019-05-19T11:16:11.592Z,6.40
2019-05-19T11:18:38.498Z,6.33
2019-05-19T11:21:05.287Z,7.92
2019-05-19T11:23:32.126Z,7.70
2019-05-19T11:25:58.973Z,7.85
2019-05-19T11:28:25.761Z,6.95
2019-05-19T11:30:53.151Z,6.78
2019-05-19T11:33:19.939Z,6.30
2019-05-19T11:35:46.729Z,6.62
2019-05-19T11:38:13.595Z,5.70
2019-05-19T11:40:40.401Z,6.70
2019-05-19T11:43:07.172Z,5.30
2019-05-19T11:45:34.184Z,4.90
2019-05-19T11:48:00.964Z,5.83
2019-05-19T11:50:27.801Z,5.33
2019-05-19T11:52:54.626Z,4.78
2019-05-19T11:55:21.416Z,3.80
2019-05-19T11:57:48.281Z,4.50
2019-05-19T12:00:16.324Z,4.40
2019-05-19T12:02:43.180Z,4.25
2019-05-19T12:05:10.221Z,3.72
2019-05-19T12:07:37.330Z,3.30
2019-05-19T12:10:04.964Z,3.35
2019-05-19T12:12:31.809Z,3.60
2019-05-19T12:14:59.465Z,3.00
2019-05-19T12:17:26.356Z,2.85
2019-05-19T12:19:53.188Z,2.75
2019-05-19T12:22:20.061Z,2.70
2019-05-19T12:24:46.847Z,2.20
2019-05-19T12:27:13.689Z,2.30
2019-05-19T12:29:40.489Z,1.90
2019-05-19T12:32:07.340Z,3.30
2019-05-19T12:34:34.224Z,3.20
2019-05-19T12:37:01.005Z,3.20
2019-05-19T12:39:28.555Z,2.70
2019-05-19T12:41:55.484Z,2.70
2019-05-19T12:44:22.320Z,2.40
2019-05-19T12:46:49.302Z,2.30
2019-05-19T12:49:16.125Z,1.90
2019-05-19T12:51:43.092Z,1.80
2019-05-19T12:54:09.949Z,1.70
2019-05-19T12:56:39.808Z,2.33
2019-05-19T12:59:05.391Z,2.50
2019-05-19T13:01:32.210Z,2.90
2019-05-19T13:03:59.053Z,2.40
2019-05-19T13:06:25.884Z,2.70
2019-05-19T13:08:52.776Z,2.60
2019-05-19T13:11:19.621Z,3.15
2019-05-19T13:13:46.488Z,3.00
2019-05-19T13:16:13.654Z,2.90
2019-05-19T13:18:40.489Z,3.10
2019-05-19T13:21:07.320Z,2.90
2019-05-19T13:23:34.162Z,2.33
2019-05-19T13:26:00.998Z,2.90
2019-05-19T13:28:27.788Z,2.37
2019-05-19T13:30:54.624Z,2.55
2019-05-19T13:33:21.646Z,2.83
2019-05-19T13:35:52.059Z,3.50
2019-05-19T13:38:21.053Z,3.23
2019-05-19T13:40:47.833Z,2.80
2019-05-19T13:43:14.677Z,2.80
2019-05-19T13:45:41.473Z,2.90
2019-05-19T13:48:08.309Z,4.25
2019-05-19T13:50:35.090Z,4.33
2019-05-19T13:53:01.936Z,4.15
2019-05-19T13:55:28.720Z,3.87
2019-05-19T13:57:55.497Z,4.10
2019-05-19T14:00:27.347Z,4.00
2019-05-19T14:02:53.017Z,3.60
2019-05-19T14:05:19.866Z,2.90
2019-05-19T14:07:46.758Z,2.90
2019-05-19T14:10:13.540Z,2.70
2019-05-19T14:12:40.361Z,2.30
2019-05-19T14:15:08.441Z,2.30
2019-05-19T14:17:35.786Z,2.10
2019-05-19T14:20:07.405Z,2.30
2019-05-19T14:22:34.236Z,2.20
2019-05-19T14:25:01.766Z,2.22
2019-05-19T14:27:30.869Z,2.10
2019-05-19T14:29:57.600Z,1.80
2019-05-19T14:32:24.433Z,2.25
2019-05-19T14:34:51.237Z,1.62
2019-05-19T14:37:18.080Z,1.53
2019-05-19T14:39:44.867Z,1.90
2019-05-19T14:42:13.517Z,1.87
2019-05-19T14:44:40.293Z,1.95
2019-05-19T14:47:07.136Z,1.45
2019-05-19T14:49:33.972Z,2.10
2019-05-19T14:52:00.797Z,1.87
2019-05-19T14:54:27.621Z,1.70
2019-05-19T14:56:54.471Z,2.00
2019-05-19T14:59:21.333Z,2.20
2019-05-19T15:01:48.179Z,2.30
2019-05-19T15:04:14.964Z,2.20
2019-05-19T15:06:41.858Z,2.45
2019-05-19T15:09:08.711Z,2.10
2019-05-19T15:11:35.549Z,2.25
2019-05-19T15:14:02.340Z,2.20
2019-05-19T15:16:29.196Z,2.30
2019-05-19T15:18:56.030Z,2.98
2019-05-19T15:21:22.866Z,2.70
2019-05-19T15:23:49.700Z,2.40
2019-05-19T15:26:18.201Z,2.30
2019-05-19T15:28:45.348Z,2.45
2019-05-19T15:31:12.197Z,2.60
2019-05-19T15:33:39.076Z,2.70
2019-05-19T15:36:06.014Z,2.85
2019-05-19T15:38:32.897Z,3.00
2019-05-19T15:41:00.841Z,2.72
2019-05-19T15:43:27.692Z,3.00
2019-05-19T15:45:54.548Z,2.60
2019-05-19T15:48:21.473Z,2.25
2019-05-19T15:50:48.268Z,2.40
2019-05-19T15:53:15.101Z,2.60
2019-05-19T15:55:41.890Z,2.20
2019-05-19T15:58:16.449Z,2.83
2019-05-19T16:00:37.637Z,2.60
2019-05-19T16:03:04.410Z,2.20
2019-05-19T16:05:31.191Z,2.50
2019-05-19T16:07:58.029Z,2.30
2019-05-19T16:10:25.129Z,2.30
2019-05-19T16:12:51.961Z,2.60
2019-05-19T16:15:19.093Z,2.60
2019-05-19T16:17:45.866Z,2.35
2019-05-19T16:20:12.809Z,2.40
2019-05-19T16:22:39.701Z,2.33
2019-05-19T16:25:06.806Z,2.75
2019-05-19T16:27:33.590Z,2.50
2019-05-19T16:30:00.495Z,2.70
2019-05-19T16:32:27.269Z,2.70
2019-05-19T16:34:54.148Z,2.70
2019-05-19T16:37:21.011Z,3.20
2019-05-19T16:39:47.809Z,3.20
2019-05-19T16:42:15.907Z,2.92
2019-05-19T16:44:42.749Z,2.40
2019-05-19T16:47:09.533Z,2.50
2019-05-19T16:49:36.373Z,2.58
2019-05-19T16:52:03.236Z,2.60
2019-05-19T16:54:34.607Z,2.73
2019-05-19T16:57:01.456Z,2.30
2019-05-19T16:59:28.236Z,2.30
2019-05-19T17:01:55.073Z,2.62
2019-05-19T17:04:22.395Z,1.90
2019-05-19T17:06:49.278Z,1.90
2019-05-19T17:09:16.248Z,2.50
2019-05-19T17:11:43.367Z,2.20
2019-05-19T17:14:10.194Z,2.20
2019-05-19T17:16:37.202Z,2.00
2019-05-19T17:19:04.081Z,2.20
2019-05-19T17:21:31.124Z,2.30
2019-05-19T17:23:57.973Z,2.10
2019-05-19T17:26:24.886Z,2.70
2019-05-19T17:29:00.216Z,2.60
2019-05-19T17:31:20.439Z,2.40
2019-05-19T17:33:47.409Z,2.10
2019-05-19T17:36:14.298Z,2.20
2019-05-19T17:38:41.177Z,2.20
2019-05-19T17:41:08.740Z,2.10
2019-05-19T17:43:35.716Z,1.90
2019-05-19T17:46:02.703Z,2.20
2019-05-19T17:48:29.597Z,2.10
2019-05-19T17:50:56.556Z,2.70
2019-05-19T17:53:23.443Z,2.10
2019-05-19T17:55:52.823Z,2.53
2019-05-19T17:58:19.915Z,2.10
2019-05-19T18:00:46.919Z,2.00
2019-05-19T18:03:13.729Z,1.70
2019-05-19T18:05:40.580Z,2.20
2019-05-19T18:08:07.430Z,1.70
2019-05-19T18:10:34.267Z,1.90
2019-05-19T18:13:01.149Z,1.60
2019-05-19T18:15:29.167Z,1.65
2019-05-19T18:17:56.058Z,1.60
2019-05-19T18:20:24.003Z,1.50
2019-05-19T18:22:51.133Z,1.70
2019-05-19T18:25:17.917Z,1.53
2019-05-19T18:27:44.776Z,1.60
2019-05-19T18:30:12.167Z,1.75
2019-05-19T18:32:39.262Z,1.80
2019-05-19T18:35:07.229Z,1.40
2019-05-19T18:37:34.108Z,1.50
2019-05-19T18:40:00.872Z,1.50
2019-05-19T18:42:27.672Z,1.80
2019-05-19T18:44:54.837Z,1.72
2019-05-19T18:47:21.629Z,1.70
2019-05-19T18:49:48.400Z,1.40
2019-05-19T18:52:15.257Z,1.80
2019-05-19T18:54:42.572Z,1.65
2019-05-19T18:57:09.836Z,1.50
2019-05-19T18:59:47.000Z,2.10
2019-05-19T19:02:05.883Z,1.80
2019-05-19T19:04:33.624Z,2.10
2019-05-19T19:07:00.760Z,1.50
2019-05-19T19:09:27.543Z,1.60
2019-05-19T19:11:54.380Z,1.52
2019-05-19T19:14:21.252Z,1.60
2019-05-19T19:16:48.098Z,1.70
2019-05-19T19:19:14.932Z,1.70
2019-05-19T19:21:41.785Z,1.60
2019-05-19T19:24:08.580Z,1.60
2019-05-19T19:26:35.419Z,1.70
2019-05-19T19:29:02.273Z,1.70
2019-05-19T19:31:29.136Z,1.62
2019-05-19T19:33:56.025Z,1.72
2019-05-19T19:36:24.764Z,1.70
2019-05-19T19:38:51.628Z,1.70
2019-05-19T19:41:18.456Z,1.80
2019-05-19T19:43:45.345Z,1.87
2019-05-19T19:46:12.190Z,1.90
2019-05-19T19:48:38.984Z,1.90
2019-05-19T19:51:05.847Z,1.80
2019-05-19T19:53:33.533Z,1.70
2019-05-19T19:56:00.389Z,2.22
2019-05-19T19:58:28.809Z,2.17
2019-05-19T20:00:55.646Z,1.90
2019-05-19T20:03:22.856Z,1.90
2019-05-19T20:05:50.217Z,1.70
2019-05-19T20:08:17.049Z,1.95
2019-05-19T20:10:43.844Z,1.80
2019-05-19T20:13:10.692Z,1.60
2019-05-19T20:15:37.486Z,1.85
2019-05-19T20:18:04.267Z,1.98
2019-05-19T20:20:31.101Z,2.20
2019-05-19T20:22:57.900Z,1.82
2019-05-19T20:25:24.750Z,1.80
2019-05-19T20:27:51.638Z,2.12
2019-05-19T20:30:33.615Z,2.50
2019-05-19T20:32:47.155Z,2.30
2019-05-19T20:35:14.006Z,2.30
2019-05-19T20:37:40.841Z,2.10
2019-05-19T20:40:08.828Z,1.80
2019-05-19T20:42:35.669Z,2.00
2019-05-19T20:45:02.615Z,2.47
2019-05-19T20:47:29.394Z,2.30
2019-05-19T20:49:56.248Z,2.60
2019-05-19T20:52:23.033Z,2.77
2019-05-19T20:54:49.877Z,2.65
2019-05-19T20:57:16.673Z,2.37
2019-05-19T20:59:43.509Z,2.60
2019-05-19T21:02:10.353Z,2.30
2019-05-19T21:04:39.152Z,2.60
2019-05-19T21:07:07.880Z,2.80
2019-05-19T21:09:34.876Z,2.70
2019-05-19T21:12:02.674Z,2.35
2019-05-19T21:14:30.562Z,2.62
2019-05-19T21:16:57.353Z,2.40
2019-05-19T21:19:24.393Z,2.40
2019-05-19T21:21:51.367Z,2.50
2019-05-19T21:24:18.196Z,2.62
2019-05-19T21:26:45.034Z,2.35
2019-05-19T21:29:11.838Z,2.72
2019-05-19T21:31:38.678Z,2.55
2019-05-19T21:34:05.463Z,3.10
2019-05-19T21:36:32.314Z,2.80
2019-05-19T21:38:59.097Z,2.47
2019-05-19T21:41:25.946Z,2.60
2019-05-19T21:43:52.765Z,2.72
2019-05-19T21:46:19.553Z,3.02
2019-05-19T21:48:46.411Z,3.40
2019-05-19T21:51:13.229Z,2.85
2019-05-19T21:53:40.074Z,3.70
2019-05-19T21:56:06.916Z,3.63
2019-05-19T21:58:33.702Z,3.40
2019-05-19T22:01:00.734Z,3.83
2019-05-19T22:03:27.579Z,3.62
2019-05-19T22:05:54.361Z,4.08
2019-05-19T22:08:21.277Z,4.03
2019-05-19T22:10:48.069Z,4.08
2019-05-19T22:13:14.956Z,4.10
2019-05-19T22:15:42.539Z,3.80
2019-05-19T22:18:09.364Z,4.60
2019-05-19T22:20:36.226Z,3.70
2019-05-19T22:23:03.060Z,4.25
2019-05-19T22:25:29.845Z,4.10
2019-05-19T22:27:56.688Z,4.55
2019-05-19T22:30:23.529Z,4.40
2019-05-19T22:32:50.365Z,4.37
2019-05-19T22:35:17.548Z,4.92
2019-05-19T22:37:44.337Z,5.30
2019-05-19T22:40:11.207Z,4.70
2019-05-19T22:42:37.989Z,5.20
2019-05-19T22:45:05.745Z,5.12
2019-05-19T22:47:32.581Z,4.97
2019-05-19T22:49:59.377Z,5.00
2019-05-19T22:52:26.251Z,5.12
2019-05-19T22:54:53.046Z,5.00
2019-05-19T22:57:19.929Z,5.00
2019-05-19T22:59:46.760Z,4.70
2019-05-19T23:02:13.580Z,5.00
2019-05-19T23:04:40.362Z,5.10
2019-05-19T23:07:07.351Z,5.05
2019-05-19T23:09:34.135Z,5.00
2019-05-19T23:12:00.965Z,4.60
2019-05-19T23:14:27.809Z,4.70
2019-05-19T23:16:54.740Z,4.80
2019-05-19T23:19:21.576Z,5.00
2019-05-19T23:21:48.402Z,5.35
2019-05-19T23:24:15.232Z,5.47
2019-05-19T23:26:42.025Z,5.20
2019-05-19T23:29:08.861Z,5.00
2019-05-19T23:31:35.647Z,5.30
2019-05-19T23:34:02.491Z,5.10
2019-05-19T23:36:29.275Z,5.00
2019-05-19T23:38:56.117Z,5.28
2019-05-19T23:41:22.901Z,5.00
2019-05-19T23:43:49.742Z,4.90
2019-05-19T23:46:16.529Z,4.97
2019-05-19T23:48:43.364Z,4.50
2019-05-19T23:51:10.157Z,4.85
2019-05-19T23:53:36.996Z,4.80
2019-05-19T23:56:04.480Z,4.53
2019-05-19T23:58:31.326Z,4.25
